Terminal Aerodrome Forecast
Issued by NWS Wilmington, OH

Current Version | Previous Version | Text Only | Print | Product List | Glossary Off
Versions: 1 2 3 4 5 6 7 8 9 10 11 12 13 14 15 16 17 18 19 20 21 22 23 24 25 26 27 28 29 30 31

000
FTUS41 KILN 271249 RRA
TAFCMH
TAF
KCMH 271249Z 2713/2812 06009KT P6SM OVC015
      TEMPO 2713/2715 5SM BR
     FM271600 03006KT P6SM OVC025
     FM271900 05006KT P6SM OVC035
     FM272200 06006KT P6SM BKN040=

USA.gov is the U.S. government's official web portal to all federal, state and local government web resources and services.